Pagina principale
METAR-TAF:

METAR-TAF

Aeroporti :

Vannes, Francia

latitudine: 47-43-19N, longitudine: 2-43-41W, altezza: 130 m

Osservazione

Il bollettino è stato emesso 23 minuti fa, alle 22:30 UTC
Vento 9 kt da nord/nord-est
Temperature 20°C
Umidità 68%
Pressione 1019 hPa
Visibilità 10 km o più
nessuna nube inferiore a 1500 m e nessun cumulonembo

METAR: LFRV 222230Z AUTO 03009KT CAVOK 20/14 Q1019

Ora: 00:53 (22:53 UTC)


TAF: mancante

Osservazioni e previsioni meteorologiche di più di 4000 aeroporti (messaggi METAR e TAF).

Le stazioni disponibili sono rappresentate dai dischi gialli e rossi sulla carta.

Puntare il mouse per vedere il nome della stazione.

Clicca sopra per visualizzare le osservazioni e previsioni meteorologiche.

Per cambiare la mappa : fare clic sui pulsanti verdi con una croce nera per ingrandire, il pulsante verde con un trattino per diminuire, o sulla freccia verde per le mappe adiacenti.


METAR-TAF: